KAQW

Harriman-And-West Airport

North Adams, Massachusetts, USA
METAR KAQW 191652Z AUTO VRB06KT 10SM BKN045 23/13 A3004 RMK AO2 SLP172 T02330133
Observed Flight Rules
Aug-19 @ 16:52 UTC (20 minutes ago) Visual Flight Rules
Wind Visibility Clouds
Variable at 6 knots 10 miles
  • Broken at 4,500' AGL
Temperatures Readings
Current 23°C / 73°F
Dewpoint 13°C / 55°F
Humidity 53%
Altimeter 30.04" Hg
Pressure 1017.2 hPa
Elevation 199
METAR KAQW 191652Z AUTO VRB06KT 10SM BKN045 23/13 A3004 RMK AO2 SLP172 T02330133
Observed Flight Rules
Aug-19 @ 16:52 UTC
(20 minutes ago)
VFR
Wind Visibility
Variable at 6 knots 10 miles
Clouds
  • Broken at 4,500' AGL
Temperature Dewpoint
23°C / 73°F 13°C / 55°F
Humidity Altimeter Pressure
53% 30.04" Hg 1017.2 hPa